createdAt,value
2023-01-08T00:02:20.782Z,88
2023-01-08T00:05:46.262Z,88
2023-01-08T00:09:11.592Z,88
2023-01-08T00:12:37.175Z,88
2023-01-08T00:16:02.400Z,88
2023-01-08T00:19:27.825Z,88
2023-01-08T00:22:53.255Z,88
2023-01-08T00:26:18.690Z,88
2023-01-08T00:29:44.476Z,88
2023-01-08T00:33:10.005Z,88
2023-01-08T00:36:44.290Z,87
2023-01-08T00:40:09.805Z,87
2023-01-08T00:43:35.164Z,86
2023-01-08T00:47:01.367Z,86
2023-01-08T00:50:27.077Z,86
2023-01-08T00:53:52.669Z,86
2023-01-08T01:07:36.288Z,83
2023-01-08T01:12:42.125Z,83
2023-01-08T01:21:27.036Z,86
2023-01-08T01:25:32.452Z,86
2023-01-08T01:28:57.805Z,85
2023-01-08T01:32:23.214Z,85
2023-01-08T01:35:48.565Z,85
2023-01-08T01:39:13.929Z,86
2023-01-08T01:42:39.450Z,86
2023-01-08T01:46:05.022Z,86
2023-01-08T01:49:30.377Z,86
2023-01-08T01:52:56.036Z,85
2023-01-08T01:56:21.299Z,85
2023-01-08T01:59:46.835Z,85
2023-01-08T02:03:12.219Z,85
2023-01-08T02:06:37.607Z,84
2023-01-08T02:10:02.947Z,84
2023-01-08T02:13:28.289Z,83
2023-01-08T02:16:53.934Z,83
2023-01-08T02:20:19.227Z,83
2023-01-08T02:23:44.597Z,83
2023-01-08T02:27:09.977Z,83
2023-01-08T02:30:35.472Z,83
2023-01-08T02:34:00.891Z,83
2023-01-08T02:37:26.161Z,83
2023-01-08T02:40:51.503Z,83
2023-01-08T02:44:16.768Z,83
2023-01-08T02:47:42.179Z,83
2023-01-08T02:51:07.731Z,83
2023-01-08T02:54:32.977Z,84
2023-01-08T02:57:58.279Z,85
2023-01-08T03:01:23.702Z,87
2023-01-08T03:04:49.026Z,88
2023-01-08T03:08:14.933Z,89
2023-01-08T03:11:40.362Z,90
2023-01-08T03:15:05.858Z,89
2023-01-08T03:18:31.199Z,89
2023-01-08T03:21:56.570Z,89
2023-01-08T03:25:22.049Z,89
2023-01-08T03:28:47.306Z,89
2023-01-08T03:32:12.796Z,90
2023-01-08T03:35:38.342Z,89
2023-01-08T03:39:03.708Z,89
2023-01-08T03:42:29.205Z,89
2023-01-08T03:45:54.765Z,89
2023-01-08T03:49:20.433Z,89
2023-01-08T03:52:45.778Z,88
2023-01-08T03:56:11.394Z,87
2023-01-08T03:59:37.053Z,87
2023-01-08T04:03:05.756Z,86
2023-01-08T04:06:28.812Z,86
2023-01-08T04:09:54.402Z,85
2023-01-08T04:13:19.911Z,85
2023-01-08T04:16:45.502Z,85
2023-01-08T04:20:10.794Z,86
2023-01-08T04:23:36.238Z,86
2023-01-08T04:27:01.715Z,86
2023-01-08T04:30:27.097Z,86
2023-01-08T04:33:52.608Z,86
2023-01-08T04:37:18.103Z,87
2023-01-08T04:40:43.651Z,87
2023-01-08T04:44:09.006Z,87
2023-01-08T04:47:34.590Z,87
2023-01-08T04:51:00.158Z,87
2023-01-08T04:54:25.575Z,87
2023-01-08T04:57:51.168Z,88
2023-01-08T05:01:16.635Z,88
2023-01-08T05:04:41.884Z,89
2023-01-08T05:08:07.457Z,88
2023-01-08T05:11:32.708Z,89
2023-01-08T05:14:58.056Z,90
2023-01-08T05:18:23.465Z,90
2023-01-08T05:21:48.869Z,90
2023-01-08T05:25:14.390Z,90
2023-01-08T05:28:39.611Z,90
2023-01-08T05:32:04.981Z,90
2023-01-08T05:35:30.533Z,90
2023-01-08T05:38:56.076Z,90
2023-01-08T05:42:21.657Z,89
2023-01-08T05:45:47.181Z,89
2023-01-08T05:49:12.608Z,88
2023-01-08T05:52:38.122Z,87
2023-01-08T05:56:03.548Z,87
2023-01-08T05:59:29.358Z,87
2023-01-08T06:02:54.768Z,86
2023-01-08T06:06:20.324Z,86
2023-01-08T06:09:45.600Z,86
2023-01-08T06:13:11.166Z,86
2023-01-08T06:16:36.962Z,85
2023-01-08T06:20:02.566Z,85
2023-01-08T06:23:28.356Z,84
2023-01-08T06:26:54.908Z,84
2023-01-08T06:30:20.327Z,83
2023-01-08T06:33:45.881Z,83
2023-01-08T06:37:11.218Z,84
2023-01-08T06:40:36.622Z,84
2023-01-08T06:44:02.116Z,83
2023-01-08T06:47:27.526Z,83
2023-01-08T06:50:53.032Z,83
2023-01-08T06:54:18.429Z,83
2023-01-08T06:57:43.973Z,83
2023-01-08T07:01:09.436Z,82
2023-01-08T07:04:34.788Z,83
2023-01-08T07:08:00.616Z,82
2023-01-08T07:11:25.960Z,82
2023-01-08T07:14:53.246Z,82
2023-01-08T07:18:18.687Z,82
2023-01-08T07:21:44.061Z,82
2023-01-08T07:25:09.475Z,81
2023-01-08T07:28:34.647Z,81
2023-01-08T07:31:59.949Z,81
2023-01-08T07:35:25.240Z,80
2023-01-08T07:38:50.558Z,80
2023-01-08T07:42:15.972Z,80
2023-01-08T07:45:41.164Z,80
2023-01-08T07:49:06.490Z,81
2023-01-08T07:52:31.785Z,81
2023-01-08T07:55:57.073Z,81
2023-01-08T07:59:22.474Z,82
2023-01-08T08:02:47.769Z,81
2023-01-08T08:06:13.262Z,81
2023-01-08T08:09:38.612Z,81
2023-01-08T08:13:03.970Z,81
2023-01-08T08:16:29.687Z,80
2023-01-08T08:19:54.790Z,81
2023-01-08T08:23:20.254Z,81
2023-01-08T08:26:46.557Z,81
2023-01-08T08:30:11.926Z,82
2023-01-08T08:33:37.279Z,82
2023-01-08T08:40:45.951Z,82
2023-01-08T08:44:11.248Z,82
2023-01-08T08:47:36.573Z,81
2023-01-08T08:51:01.970Z,81
2023-01-08T08:54:27.114Z,82
2023-01-08T08:57:52.399Z,81
2023-01-08T09:01:17.792Z,82
2023-01-08T09:04:43.096Z,82
2023-01-08T09:08:08.484Z,82
2023-01-08T09:11:33.648Z,82
2023-01-08T09:14:59.002Z,82
2023-01-08T09:18:24.314Z,83
2023-01-08T09:21:49.615Z,83
2023-01-08T09:25:15.044Z,82
2023-01-08T09:28:40.253Z,83
2023-01-08T09:32:05.558Z,83
2023-01-08T09:35:30.839Z,83
2023-01-08T09:38:56.135Z,83
2023-01-08T09:42:21.564Z,83
2023-01-08T09:45:46.749Z,84
2023-01-08T09:49:12.047Z,84
2023-01-08T09:52:37.313Z,84
2023-01-08T09:56:09.954Z,84
2023-01-08T09:59:28.002Z,84
2023-01-08T10:02:53.227Z,83
2023-01-08T10:06:18.569Z,84
2023-01-08T10:09:43.885Z,84
2023-01-08T10:13:09.186Z,85
2023-01-08T10:16:34.672Z,86
2023-01-08T10:20:00.402Z,86
2023-01-08T10:23:25.710Z,86
2023-01-08T10:26:52.634Z,87
2023-01-08T10:30:16.716Z,88
2023-01-08T10:33:42.165Z,88
2023-01-08T10:37:07.340Z,88
2023-01-08T10:40:32.647Z,88
2023-01-08T10:43:57.943Z,89
2023-01-08T10:47:23.245Z,89
2023-01-08T10:50:48.621Z,89
2023-01-08T10:54:13.895Z,89
2023-01-08T10:57:39.632Z,90
2023-01-08T11:01:05.029Z,90
2023-01-08T11:04:30.227Z,90
2023-01-08T11:07:55.553Z,90
2023-01-08T11:11:20.843Z,91
2023-01-08T11:14:46.147Z,90
2023-01-08T11:18:11.423Z,91
2023-01-08T11:21:36.763Z,91
2023-01-08T11:25:02.081Z,90
2023-01-08T11:28:27.339Z,90
2023-01-08T11:31:52.595Z,90
2023-01-08T11:35:17.831Z,90
2023-01-08T11:38:43.099Z,90
2023-01-08T11:42:08.482Z,90
2023-01-08T11:45:33.912Z,90
2023-01-08T11:48:59.252Z,90
2023-01-08T11:52:24.551Z,90
2023-01-08T11:55:49.879Z,91
2023-01-08T11:59:15.281Z,91
2023-01-08T12:02:40.542Z,91
2023-01-08T12:06:05.829Z,91
2023-01-08T12:09:31.177Z,91
2023-01-08T12:12:56.433Z,92
2023-01-08T12:16:22.034Z,91
2023-01-08T12:19:47.131Z,91
2023-01-08T12:23:12.445Z,91
2023-01-08T12:26:37.754Z,91
2023-01-08T12:30:03.097Z,91
2023-01-08T12:33:28.476Z,92
2023-01-08T12:36:53.812Z,91
2023-01-08T12:40:19.187Z,92
2023-01-08T12:43:44.573Z,91
2023-01-08T12:47:09.955Z,92
2023-01-08T12:50:36.837Z,92
2023-01-08T12:54:02.111Z,93
2023-01-08T12:57:27.434Z,93
2023-01-08T13:00:52.883Z,93
2023-01-08T13:04:18.190Z,94
2023-01-08T13:07:43.546Z,94
2023-01-08T13:11:08.899Z,94
2023-01-08T13:14:34.321Z,94
2023-01-08T13:17:59.639Z,94
2023-01-08T13:21:24.970Z,94
2023-01-08T13:24:50.336Z,95
2023-01-08T13:28:15.665Z,95
2023-01-08T13:31:41.056Z,95
2023-01-08T13:35:06.305Z,95
2023-01-08T13:38:31.631Z,95
2023-01-08T13:41:56.932Z,95
2023-01-08T13:45:22.201Z,95
2023-01-08T13:48:47.538Z,95
2023-01-08T13:52:12.864Z,96
2023-01-08T13:55:38.150Z,95
2023-01-08T13:59:03.586Z,95
2023-01-08T14:02:29.090Z,95
2023-01-08T14:05:54.275Z,95
2023-01-08T14:09:19.625Z,95
2023-01-08T14:12:44.999Z,95
2023-01-08T14:16:10.413Z,95
2023-01-08T14:19:35.664Z,95
2023-01-08T14:23:00.966Z,95
2023-01-08T14:26:26.232Z,95
2023-01-08T14:29:51.500Z,95
2023-01-08T15:06:25.408Z,94
2023-01-08T15:09:50.616Z,93
2023-01-08T15:13:15.888Z,93
2023-01-08T15:16:41.147Z,93
2023-01-08T15:20:06.451Z,93
2023-01-08T15:23:31.708Z,94
2023-01-08T15:26:56.918Z,93
2023-01-08T15:30:22.199Z,93
2023-01-08T15:33:47.464Z,93
2023-01-08T15:37:12.709Z,93
2023-01-08T15:40:37.963Z,93
2023-01-08T15:44:03.181Z,92
2023-01-08T15:47:28.433Z,92
2023-01-08T15:50:53.661Z,92
2023-01-08T15:54:18.932Z,92
2023-01-08T15:57:44.226Z,92
2023-01-08T16:01:09.545Z,93
2023-01-08T16:04:34.691Z,93
2023-01-08T16:07:59.929Z,92
2023-01-08T16:11:25.168Z,92
2023-01-08T16:14:50.451Z,93
2023-01-08T16:18:15.670Z,93
2023-01-08T16:21:40.919Z,93
2023-01-08T16:25:06.176Z,92
2023-01-08T16:28:31.424Z,92
2023-01-08T16:31:56.775Z,92
2023-01-08T16:35:21.934Z,93
2023-01-08T16:38:47.171Z,92
2023-01-08T16:42:12.429Z,93
2023-01-08T16:45:37.935Z,93
2023-01-08T16:49:03.382Z,93
2023-01-08T16:52:28.656Z,92
2023-01-08T16:55:54.054Z,93
2023-01-08T16:59:23.433Z,93
2023-01-08T17:02:44.818Z,93
2023-01-08T17:06:10.145Z,93
2023-01-08T17:09:35.418Z,93
2023-01-08T17:13:00.930Z,93
2023-01-08T17:16:26.421Z,93
2023-01-08T17:19:51.769Z,93
2023-01-08T17:23:17.119Z,93
2023-01-08T17:26:42.481Z,93
2023-01-08T17:30:07.913Z,93
2023-01-08T17:33:33.281Z,93
2023-01-08T17:36:58.637Z,93
2023-01-08T17:40:24.051Z,92
2023-01-08T17:43:49.368Z,93
2023-01-08T17:47:14.700Z,92
2023-01-08T17:50:39.987Z,92
2023-01-08T17:54:05.316Z,92
2023-01-08T17:57:30.659Z,92
2023-01-08T18:00:56.014Z,92
2023-01-08T18:04:21.322Z,92
2023-01-08T18:07:46.646Z,92
2023-01-08T18:11:11.953Z,92
2023-01-08T18:14:37.294Z,91
2023-01-08T18:18:02.597Z,91
2023-01-08T18:21:27.907Z,91
2023-01-08T18:24:53.208Z,91
2023-01-08T18:28:18.519Z,91
2023-01-08T18:31:45.910Z,91
2023-01-08T18:35:09.130Z,91
2023-01-08T18:38:35.444Z,90
2023-01-08T18:41:59.831Z,90
2023-01-08T18:45:25.214Z,90
2023-01-08T18:48:51.203Z,90
2023-01-08T18:52:15.966Z,90
2023-01-08T18:55:41.254Z,90
2023-01-08T18:59:06.556Z,90
2023-01-08T19:02:31.863Z,90
2023-01-08T19:05:57.146Z,90
2023-01-08T19:09:22.399Z,90
2023-01-08T19:12:47.677Z,90
2023-01-08T19:16:12.993Z,90
2023-01-08T19:19:38.234Z,90
2023-01-08T19:23:03.527Z,89
2023-01-08T19:26:28.787Z,89
2023-01-08T19:29:54.056Z,89
2023-01-08T19:33:19.343Z,89
2023-01-08T19:36:44.636Z,89
2023-01-08T19:40:09.932Z,89
2023-01-08T19:43:35.185Z,89
2023-01-08T19:47:00.501Z,89
2023-01-08T19:50:25.768Z,89
2023-01-08T19:53:51.029Z,89
2023-01-08T19:57:16.338Z,88
2023-01-08T20:00:41.612Z,90
2023-01-08T20:04:06.887Z,90
2023-01-08T20:07:32.195Z,89
2023-01-08T20:10:57.477Z,89
2023-01-08T20:14:22.811Z,89
2023-01-08T20:17:48.045Z,89
2023-01-08T20:21:13.331Z,89
2023-01-08T20:24:39.389Z,89
2023-01-08T20:28:04.756Z,88
2023-01-08T20:31:30.142Z,89
2023-01-08T20:34:55.375Z,89
2023-01-08T20:38:20.746Z,88
2023-01-08T20:41:49.855Z,89
2023-01-08T20:45:11.479Z,89
2023-01-08T20:48:42.844Z,89
2023-01-08T20:52:02.070Z,89
2023-01-08T20:55:27.375Z,90
2023-01-08T20:58:52.701Z,89
2023-01-08T21:02:18.017Z,89
2023-01-08T21:05:43.328Z,89
2023-01-08T21:09:08.609Z,89
2023-01-08T21:12:33.918Z,90
2023-01-08T21:15:59.295Z,90
2023-01-08T21:19:24.637Z,90
2023-01-08T21:22:49.931Z,89
2023-01-08T21:26:15.214Z,89
2023-01-08T21:29:40.510Z,89
2023-01-08T21:33:05.806Z,89
2023-01-08T21:36:31.157Z,88
2023-01-08T21:39:56.506Z,88
2023-01-08T21:43:21.758Z,87
2023-01-08T21:46:47.116Z,87
2023-01-08T21:50:12.478Z,88
2023-01-08T21:53:37.819Z,88
2023-01-08T21:57:03.172Z,88
2023-01-08T22:00:28.439Z,87
2023-01-08T22:03:53.832Z,88
2023-01-08T22:07:19.086Z,88
2023-01-08T22:10:44.441Z,87
2023-01-08T22:14:09.794Z,87
2023-01-08T22:17:35.039Z,88
2023-01-08T22:21:00.361Z,89
2023-01-08T22:24:25.681Z,90
2023-01-08T22:27:51.002Z,90
2023-01-08T22:31:16.378Z,91
2023-01-08T22:34:41.654Z,90
2023-01-08T22:38:06.986Z,90
2023-01-08T22:41:32.314Z,89
2023-01-08T22:44:57.631Z,88
2023-01-08T22:48:22.959Z,88
2023-01-08T22:51:48.302Z,89
2023-01-08T22:55:13.606Z,89
2023-01-08T22:58:38.937Z,88
2023-01-08T23:02:04.266Z,88
2023-01-08T23:05:29.610Z,89
2023-01-08T23:08:54.872Z,89
2023-01-08T23:12:20.178Z,89
2023-01-08T23:15:46.489Z,90
2023-01-08T23:19:11.792Z,89
2023-01-08T23:22:37.113Z,88
2023-01-08T23:26:02.443Z,89
2023-01-08T23:29:27.726Z,89
2023-01-08T23:32:53.046Z,90
2023-01-08T23:36:18.481Z,90
2023-01-08T23:39:43.793Z,89
2023-01-08T23:43:09.116Z,88
2023-01-08T23:46:34.449Z,87
2023-01-08T23:49:59.733Z,87
2023-01-08T23:53:25.081Z,87
2023-01-08T23:56:50.435Z,86
